createdAt,value
2023-01-30T00:00:35.488Z,2.98
2023-01-30T00:01:35.462Z,2.97
2023-01-30T00:02:35.475Z,2.97
2023-01-30T00:03:35.617Z,2.85
2023-01-30T00:04:35.473Z,2.95
2023-01-30T00:05:35.410Z,2.82
2023-01-30T00:06:35.422Z,2.87
2023-01-30T00:07:35.401Z,2.87
2023-01-30T00:08:36.403Z,2.86
2023-01-30T00:09:35.637Z,2.87
2023-01-30T00:10:36.370Z,2.61
2023-01-30T00:11:35.366Z,2.68
2023-01-30T00:12:35.368Z,2.64
2023-01-30T00:13:35.352Z,2.53
2023-01-30T00:14:35.314Z,2.43
2023-01-30T00:15:35.331Z,2.38
2023-01-30T00:16:36.396Z,2.54
2023-01-30T00:17:35.316Z,2.53
2023-01-30T00:18:35.300Z,2.57
2023-01-30T00:19:36.261Z,2.71
2023-01-30T00:20:35.253Z,2.72
2023-01-30T00:21:35.278Z,2.54
2023-01-30T00:22:35.235Z,2.53
2023-01-30T00:23:35.241Z,2.62
2023-01-30T00:24:35.310Z,2.71
2023-01-30T00:25:35.378Z,2.79
2023-01-30T00:26:36.243Z,2.79
2023-01-30T00:27:36.203Z,2.86
2023-01-30T00:28:35.189Z,2.77
2023-01-30T00:29:35.165Z,2.90
2023-01-30T00:30:35.203Z,2.89
2023-01-30T00:31:35.181Z,2.79
2023-01-30T00:32:36.126Z,2.86
2023-01-30T00:33:35.134Z,2.79
2023-01-30T00:34:35.099Z,2.77
2023-01-30T00:35:35.115Z,2.85
2023-01-30T00:36:35.117Z,2.95
2023-01-30T00:37:36.077Z,2.83
2023-01-30T00:38:36.064Z,2.85
2023-01-30T00:39:35.074Z,2.89
2023-01-30T00:40:35.055Z,2.98
2023-01-30T00:41:35.038Z,2.86
2023-01-30T00:42:35.048Z,2.83
2023-01-30T00:43:34.998Z,3.03
2023-01-30T00:44:35.018Z,2.82
2023-01-30T00:45:35.008Z,2.86
2023-01-30T00:46:35.059Z,2.82
2023-01-30T00:47:34.975Z,2.80
2023-01-30T00:48:34.976Z,2.82
2023-01-30T00:49:34.961Z,2.92
2023-01-30T00:50:34.923Z,2.95
2023-01-30T00:51:35.955Z,2.93
2023-01-30T00:52:34.938Z,2.89
2023-01-30T00:53:34.922Z,2.93
2023-01-30T00:54:35.896Z,2.83
2023-01-30T00:55:34.890Z,2.98
2023-01-30T00:56:35.047Z,3.05
2023-01-30T00:57:34.874Z,3.03
2023-01-30T00:58:35.854Z,2.86
2023-01-30T00:59:34.861Z,3.00
2023-01-30T01:00:34.827Z,2.97
2023-01-30T01:01:34.863Z,2.97
2023-01-30T01:02:35.839Z,2.85
2023-01-30T01:03:35.822Z,2.83
2023-01-30T01:04:34.789Z,2.92
2023-01-30T01:05:35.769Z,2.89
2023-01-30T01:06:35.781Z,2.93
2023-01-30T01:07:35.749Z,2.93
2023-01-30T01:08:34.754Z,2.89
2023-01-30T01:09:34.732Z,2.95
2023-01-30T01:10:34.758Z,2.86
2023-01-30T01:11:34.751Z,2.65
2023-01-30T01:12:34.728Z,2.77
2023-01-30T01:13:34.701Z,2.77
2023-01-30T01:14:35.691Z,2.74
2023-01-30T01:15:34.677Z,2.86
2023-01-30T01:16:34.902Z,2.89
2023-01-30T01:17:34.669Z,2.95
2023-01-30T01:18:35.634Z,2.92
2023-01-30T01:19:34.627Z,2.87
2023-01-30T01:20:34.601Z,2.90
2023-01-30T01:21:34.591Z,3.00
2023-01-30T01:22:35.641Z,3.00
2023-01-30T01:23:34.587Z,3.01
2023-01-30T01:24:34.572Z,2.98
2023-01-30T01:25:34.585Z,3.00
2023-01-30T01:26:35.578Z,2.97
2023-01-30T01:27:34.588Z,3.03
2023-01-30T01:28:34.554Z,3.05
2023-01-30T01:29:35.529Z,3.08
2023-01-30T01:30:34.501Z,3.03
2023-01-30T01:31:35.584Z,2.95
2023-01-30T01:32:34.490Z,2.98
2023-01-30T01:33:35.536Z,3.01
2023-01-30T01:34:34.464Z,3.08
2023-01-30T01:35:34.477Z,2.98
2023-01-30T01:36:53.979Z,3.03
2023-01-30T01:37:35.453Z,3.01
2023-01-30T01:38:34.435Z,3.08
2023-01-30T01:39:34.435Z,3.07
2023-01-30T01:40:35.426Z,3.05
2023-01-30T01:41:34.411Z,3.03
2023-01-30T01:42:34.381Z,3.10
2023-01-30T01:43:34.371Z,3.10
2023-01-30T01:44:34.365Z,3.10
2023-01-30T01:45:34.465Z,3.03
2023-01-30T01:46:34.398Z,3.14
2023-01-30T01:47:34.340Z,3.14
2023-01-30T01:48:34.303Z,3.23
2023-01-30T01:49:34.306Z,3.28
2023-01-30T01:50:34.326Z,3.21
2023-01-30T01:51:34.293Z,3.25
2023-01-30T01:52:34.303Z,3.21
2023-01-30T01:53:34.282Z,3.25
2023-01-30T01:54:34.282Z,3.25
2023-01-30T01:55:34.224Z,3.42
2023-01-30T01:56:34.237Z,3.51
2023-01-30T01:57:34.267Z,3.50
2023-01-30T01:58:35.204Z,3.58
2023-01-30T01:59:35.213Z,3.62
2023-01-30T02:00:34.196Z,3.68
2023-01-30T02:01:34.159Z,3.73
2023-01-30T02:02:34.197Z,3.73
2023-01-30T02:03:34.166Z,3.66
2023-01-30T02:04:34.170Z,3.66
2023-01-30T02:05:34.156Z,3.55
2023-01-30T02:06:34.151Z,3.56
2023-01-30T02:07:35.104Z,3.51
2023-01-30T02:08:34.115Z,3.51
2023-01-30T02:09:34.101Z,3.58
2023-01-30T02:10:34.078Z,3.50
2023-01-30T02:11:34.138Z,3.56
2023-01-30T02:12:34.096Z,3.48
2023-01-30T02:13:34.045Z,3.70
2023-01-30T02:14:34.028Z,3.70
2023-01-30T02:15:35.034Z,3.68
2023-01-30T02:16:34.026Z,3.78
2023-01-30T02:17:34.045Z,3.81
2023-01-30T02:18:34.041Z,3.83
2023-01-30T02:19:34.978Z,3.92
2023-01-30T02:20:33.974Z,3.92
2023-01-30T02:21:34.064Z,3.91
2023-01-30T02:22:34.957Z,3.92
2023-01-30T02:23:33.968Z,3.96
2023-01-30T02:24:33.973Z,4.01
2023-01-30T02:25:33.918Z,3.99
2023-01-30T02:26:33.959Z,3.95
2023-01-30T02:27:33.918Z,3.96
2023-01-30T02:28:33.892Z,3.95
2023-01-30T02:29:33.880Z,3.94
2023-01-30T02:30:33.907Z,3.91
2023-01-30T02:31:34.023Z,3.92
2023-01-30T02:32:33.907Z,3.88
2023-01-30T02:33:33.833Z,3.95
2023-01-30T02:34:33.846Z,3.87
2023-01-30T02:35:33.807Z,3.83
2023-01-30T02:36:33.808Z,3.87
2023-01-30T02:37:33.798Z,3.88
2023-01-30T02:38:33.782Z,3.84
2023-01-30T02:39:33.778Z,3.87
2023-01-30T02:40:34.773Z,3.84
2023-01-30T02:41:33.745Z,3.88
2023-01-30T02:42:34.750Z,3.87
2023-01-30T02:43:34.743Z,3.91
2023-01-30T02:44:33.716Z,3.91
2023-01-30T02:45:33.720Z,3.88
2023-01-30T02:46:34.697Z,3.95
2023-01-30T02:47:34.706Z,3.91
2023-01-30T02:48:33.671Z,3.86
2023-01-30T02:49:33.663Z,3.88
2023-01-30T02:50:33.645Z,3.87
2023-01-30T02:51:33.636Z,4.01
2023-01-30T02:52:33.650Z,4.06
2023-01-30T02:53:33.631Z,3.98
2023-01-30T02:54:33.595Z,4.12
2023-01-30T02:55:33.612Z,4.14
2023-01-30T02:56:34.587Z,4.08
2023-01-30T02:57:33.639Z,4.12
2023-01-30T02:58:33.572Z,4.02
2023-01-30T02:59:33.554Z,3.99
2023-01-30T03:00:34.543Z,3.99
2023-01-30T03:01:33.603Z,4.01
2023-01-30T03:02:33.590Z,3.96
2023-01-30T03:03:33.501Z,4.04
2023-01-30T03:04:33.520Z,4.13
2023-01-30T03:05:33.479Z,4.06
2023-01-30T03:06:33.470Z,3.99
2023-01-30T03:07:34.471Z,3.98
2023-01-30T03:08:33.466Z,4.08
2023-01-30T03:09:33.509Z,4.13
2023-01-30T03:10:33.458Z,4.28
2023-01-30T03:11:33.411Z,4.13
2023-01-30T03:12:33.400Z,4.08
2023-01-30T03:13:33.408Z,4.19
2023-01-30T03:14:34.379Z,4.10
2023-01-30T03:15:33.379Z,4.16
2023-01-30T03:16:33.403Z,4.17
2023-01-30T03:17:33.348Z,4.32
2023-01-30T03:18:33.343Z,4.40
2023-01-30T03:19:33.358Z,4.41
2023-01-30T03:20:34.320Z,4.41
2023-01-30T03:21:34.293Z,4.16
2023-01-30T03:22:33.297Z,4.20
2023-01-30T03:23:33.271Z,4.19
2023-01-30T03:24:33.283Z,4.22
2023-01-30T03:25:33.264Z,4.17
2023-01-30T03:26:33.312Z,4.23
2023-01-30T03:27:33.269Z,4.31
2023-01-30T03:28:34.227Z,4.37
2023-01-30T03:29:33.223Z,4.32
2023-01-30T03:30:33.225Z,4.28
2023-01-30T03:31:33.409Z,4.20
2023-01-30T03:32:33.188Z,4.23
2023-01-30T03:33:33.195Z,4.28
2023-01-30T03:34:33.179Z,4.40
2023-01-30T03:35:33.205Z,4.41
2023-01-30T03:36:33.137Z,4.40
2023-01-30T03:37:33.167Z,4.42
2023-01-30T03:38:33.124Z,4.35
2023-01-30T03:39:33.126Z,4.41
2023-01-30T03:40:33.109Z,4.41
2023-01-30T03:41:33.080Z,4.40
2023-01-30T03:42:33.074Z,4.34
2023-01-30T03:43:33.105Z,4.38
2023-01-30T03:44:33.060Z,4.40
2023-01-30T03:45:33.094Z,4.38
2023-01-30T03:46:33.016Z,4.37
2023-01-30T03:47:33.025Z,4.49
2023-01-30T03:48:33.014Z,4.50
2023-01-30T03:49:33.039Z,4.42
2023-01-30T03:50:34.002Z,4.52
2023-01-30T03:51:33.982Z,4.50
2023-01-30T03:52:32.981Z,4.66
2023-01-30T03:53:32.970Z,4.63
2023-01-30T03:54:32.949Z,4.62
2023-01-30T03:55:33.948Z,4.49
2023-01-30T03:56:32.950Z,4.52
2023-01-30T03:57:33.910Z,4.53
2023-01-30T03:58:32.923Z,4.55
2023-01-30T03:59:32.916Z,4.53
2023-01-30T04:00:32.883Z,4.55
2023-01-30T04:01:32.965Z,4.60
2023-01-30T04:02:32.941Z,4.58
2023-01-30T04:03:32.882Z,4.66
2023-01-30T04:04:32.828Z,4.66
2023-01-30T04:05:33.856Z,4.67
2023-01-30T04:06:33.192Z,4.67
2023-01-30T04:07:32.813Z,4.89
2023-01-30T04:08:33.812Z,4.90
2023-01-30T04:09:32.794Z,4.82
2023-01-30T04:10:32.755Z,4.66
2023-01-30T04:11:32.805Z,4.75
2023-01-30T04:12:32.739Z,4.66
2023-01-30T04:13:32.770Z,4.80
2023-01-30T04:14:32.740Z,4.96
2023-01-30T04:15:32.710Z,4.86
2023-01-30T04:16:32.826Z,4.84
2023-01-30T04:17:32.678Z,4.90
2023-01-30T04:18:32.703Z,4.84
2023-01-30T04:19:32.698Z,4.73
2023-01-30T04:20:32.659Z,4.78
2023-01-30T04:21:32.664Z,4.87
2023-01-30T04:22:33.632Z,4.87
2023-01-30T04:23:32.626Z,5.04
2023-01-30T04:24:32.625Z,5.02
2023-01-30T04:25:32.653Z,5.08
2023-01-30T04:26:33.681Z,4.93
2023-01-30T04:27:33.583Z,4.93
2023-01-30T04:28:32.618Z,4.99
2023-01-30T04:29:33.559Z,5.11
2023-01-30T04:30:33.554Z,4.89
2023-01-30T04:31:32.629Z,5.04
2023-01-30T04:32:33.536Z,5.07
2023-01-30T04:33:32.547Z,4.97
2023-01-30T04:34:32.611Z,4.96
2023-01-30T04:35:40.190Z,5.26
2023-01-30T04:36:32.499Z,5.15
2023-01-30T04:37:32.468Z,5.08
2023-01-30T04:38:32.455Z,4.94
2023-01-30T04:39:32.471Z,4.90
2023-01-30T04:40:33.449Z,4.94
2023-01-30T04:41:32.441Z,5.07
2023-01-30T04:42:32.424Z,4.97
2023-01-30T04:43:32.432Z,4.96
2023-01-30T04:44:32.410Z,5.11
2023-01-30T04:45:33.388Z,5.21
2023-01-30T04:46:32.388Z,5.12
2023-01-30T04:47:32.396Z,5.14
2023-01-30T04:48:32.357Z,5.23
2023-01-30T04:49:32.379Z,5.21
2023-01-30T04:50:33.348Z,5.21
2023-01-30T04:51:32.308Z,5.21
2023-01-30T04:52:32.336Z,5.17
2023-01-30T04:53:32.303Z,5.23
2023-01-30T04:54:32.303Z,5.30
2023-01-30T04:55:33.282Z,5.30
2023-01-30T04:56:33.269Z,5.26
2023-01-30T04:57:32.261Z,5.29
2023-01-30T04:58:32.309Z,5.41
2023-01-30T04:59:33.271Z,5.50
2023-01-30T05:00:32.248Z,5.53
2023-01-30T05:01:32.213Z,5.47
2023-01-30T05:02:33.186Z,5.33
2023-01-30T05:03:33.207Z,5.47
2023-01-30T05:04:32.223Z,5.39
2023-01-30T05:05:32.173Z,5.29
2023-01-30T05:06:32.185Z,5.21
2023-01-30T05:07:32.143Z,5.30
2023-01-30T05:08:32.204Z,5.30
2023-01-30T05:09:32.132Z,5.41
2023-01-30T05:10:32.118Z,5.30
2023-01-30T05:11:32.104Z,5.38
2023-01-30T05:12:32.101Z,5.32
2023-01-30T05:13:32.088Z,5.46
2023-01-30T05:14:32.068Z,5.44
2023-01-30T05:15:32.069Z,5.39
2023-01-30T05:16:32.059Z,5.53
2023-01-30T05:17:32.066Z,5.39
2023-01-30T05:18:33.033Z,5.43
2023-01-30T05:19:32.013Z,5.38
2023-01-30T05:20:33.029Z,5.41
2023-01-30T05:21:31.976Z,5.32
2023-01-30T05:22:32.031Z,5.57
2023-01-30T05:23:31.978Z,5.59
2023-01-30T05:24:31.958Z,5.61
2023-01-30T05:25:31.946Z,5.53
2023-01-30T05:26:31.985Z,5.54
2023-01-30T05:27:31.927Z,5.39
2023-01-30T05:28:31.934Z,5.51
2023-01-30T05:29:31.915Z,5.43
2023-01-30T05:30:31.949Z,5.28
2023-01-30T05:31:31.899Z,5.39
2023-01-30T05:32:31.863Z,5.30
2023-01-30T05:33:31.862Z,5.30
2023-01-30T05:34:32.879Z,5.48
2023-01-30T05:35:31.872Z,5.57
2023-01-30T05:36:31.837Z,5.48
2023-01-30T05:37:31.812Z,5.50
2023-01-30T05:38:31.821Z,5.69
2023-01-30T05:39:32.795Z,5.59
2023-01-30T05:40:32.832Z,5.64
2023-01-30T05:41:31.762Z,5.48
2023-01-30T05:42:31.748Z,5.44
2023-01-30T05:43:31.747Z,5.53
2023-01-30T05:44:32.748Z,5.51
2023-01-30T05:45:31.754Z,5.65
2023-01-30T05:46:31.759Z,5.50
2023-01-30T05:47:31.703Z,5.43
2023-01-30T05:48:31.706Z,5.46
2023-01-30T05:49:31.759Z,5.51
2023-01-30T05:50:31.681Z,5.64
2023-01-30T05:51:31.664Z,5.62
2023-01-30T05:52:31.695Z,5.62
2023-01-30T05:53:31.650Z,5.51
2023-01-30T05:54:31.628Z,5.59
2023-01-30T05:55:31.752Z,5.44
2023-01-30T05:56:31.598Z,5.50
2023-01-30T05:57:31.608Z,5.57
2023-01-30T05:58:31.626Z,5.69
2023-01-30T05:59:31.613Z,5.64
2023-01-30T06:00:31.561Z,5.54
2023-01-30T06:01:31.583Z,5.47
2023-01-30T06:02:31.584Z,5.68
2023-01-30T06:03:32.632Z,5.54
2023-01-30T06:04:31.538Z,5.50
2023-01-30T06:05:31.510Z,5.64
2023-01-30T06:06:31.501Z,5.61
2023-01-30T06:07:31.507Z,5.50
2023-01-30T06:08:31.499Z,5.61
2023-01-30T06:09:31.481Z,5.56
2023-01-30T06:10:31.486Z,5.71
2023-01-30T06:11:31.452Z,5.71
2023-01-30T06:12:31.427Z,5.65
2023-01-30T06:13:31.422Z,5.72
2023-01-30T06:14:31.457Z,5.66
2023-01-30T06:15:32.387Z,5.59
2023-01-30T06:16:31.521Z,5.69
2023-01-30T06:17:31.362Z,5.51
2023-01-30T06:18:31.385Z,5.59
2023-01-30T06:19:31.360Z,5.72
2023-01-30T06:20:32.358Z,5.69
2023-01-30T06:21:32.381Z,5.87
2023-01-30T06:22:32.316Z,5.84
2023-01-30T06:23:31.323Z,5.94
2023-01-30T06:24:31.328Z,5.79
2023-01-30T06:25:31.315Z,5.94
2023-01-30T06:26:31.322Z,5.84
2023-01-30T06:27:31.295Z,5.87
2023-01-30T06:28:31.282Z,5.86
2023-01-30T06:29:31.278Z,5.91
2023-01-30T06:30:31.330Z,5.94
2023-01-30T06:31:31.288Z,5.97
2023-01-30T06:32:32.241Z,5.75
2023-01-30T06:33:31.215Z,5.82
2023-01-30T06:34:31.232Z,5.79
2023-01-30T06:35:31.203Z,5.90
2023-01-30T06:36:31.223Z,5.83
2023-01-30T06:37:31.156Z,5.80
2023-01-30T06:38:31.203Z,5.82
2023-01-30T06:39:31.146Z,5.83
2023-01-30T06:40:31.151Z,5.84
2023-01-30T06:41:31.134Z,5.84
2023-01-30T06:42:31.111Z,5.91
2023-01-30T06:43:31.119Z,5.97
2023-01-30T06:44:32.108Z,5.98
2023-01-30T06:45:31.057Z,5.91
2023-01-30T06:46:32.136Z,5.98
2023-01-30T06:47:32.055Z,5.97
2023-01-30T06:48:32.029Z,5.98
2023-01-30T06:49:31.080Z,5.87
2023-01-30T06:50:31.049Z,5.86
2023-01-30T06:51:31.023Z,5.86
2023-01-30T06:52:30.981Z,5.91
2023-01-30T06:53:30.975Z,5.89
2023-01-30T06:54:31.012Z,5.91
2023-01-30T06:55:31.989Z,5.97
2023-01-30T06:56:31.983Z,5.91
2023-01-30T06:57:31.943Z,5.87
2023-01-30T06:58:30.951Z,5.76
2023-01-30T06:59:30.908Z,5.83
2023-01-30T07:00:31.044Z,5.82
2023-01-30T07:01:30.927Z,5.84
2023-01-30T07:02:30.895Z,5.93
2023-01-30T07:03:31.882Z,5.89
2023-01-30T07:04:31.919Z,5.83
2023-01-30T07:05:30.841Z,5.89
2023-01-30T07:06:30.851Z,5.87
2023-01-30T07:07:30.846Z,5.94
2023-01-30T07:08:30.843Z,5.99
2023-01-30T07:09:30.816Z,6.02
2023-01-30T07:10:30.792Z,5.93
2023-01-30T07:11:30.859Z,5.93
2023-01-30T07:12:30.827Z,5.93
2023-01-30T07:13:30.770Z,5.93
2023-01-30T07:14:30.771Z,5.94
2023-01-30T07:15:30.747Z,6.11
2023-01-30T07:16:30.836Z,6.05
2023-01-30T07:17:30.724Z,5.94
2023-01-30T07:18:30.728Z,5.97
2023-01-30T07:19:30.706Z,6.11
2023-01-30T07:20:30.737Z,5.97
2023-01-30T07:21:30.682Z,5.99
2023-01-30T07:22:30.684Z,6.01
2023-01-30T07:23:30.666Z,6.11
2023-01-30T07:24:31.658Z,6.04
2023-01-30T07:25:30.650Z,6.19
2023-01-30T07:26:30.664Z,6.07
2023-01-30T07:27:30.620Z,5.84
2023-01-30T07:28:30.617Z,5.83
2023-01-30T07:29:30.617Z,5.89
2023-01-30T07:30:30.808Z,6.02
2023-01-30T07:31:30.635Z,6.02
2023-01-30T07:32:30.601Z,5.98
2023-01-30T07:33:30.533Z,6.09
2023-01-30T07:34:31.539Z,5.98
2023-01-30T07:35:30.536Z,6.04
2023-01-30T07:36:30.516Z,6.09
2023-01-30T07:37:30.503Z,5.98
2023-01-30T07:38:31.518Z,6.07
2023-01-30T07:39:30.519Z,6.01
2023-01-30T07:40:30.480Z,6.08
2023-01-30T07:41:30.471Z,6.19
2023-01-30T07:42:30.454Z,6.09
2023-01-30T07:43:30.441Z,6.14
2023-01-30T07:44:30.436Z,6.16
2023-01-30T07:45:30.462Z,6.19
2023-01-30T07:46:30.412Z,6.24
2023-01-30T07:47:30.403Z,6.30
2023-01-30T07:48:30.395Z,6.19
2023-01-30T07:49:30.366Z,6.19
2023-01-30T07:50:30.363Z,6.30
2023-01-30T07:51:30.371Z,6.20
2023-01-30T07:52:30.339Z,6.14
2023-01-30T07:53:30.329Z,6.05
2023-01-30T07:54:30.351Z,6.09
2023-01-30T07:55:30.292Z,6.11
2023-01-30T07:56:31.322Z,6.05
2023-01-30T07:57:31.297Z,6.17
2023-01-30T07:58:30.940Z,6.26
2023-01-30T07:59:30.253Z,6.35
2023-01-30T08:00:30.287Z,6.19
2023-01-30T08:01:30.267Z,6.26
2023-01-30T08:02:30.304Z,6.36
2023-01-30T08:03:30.354Z,6.41
2023-01-30T08:04:30.258Z,6.48
2023-01-30T08:05:31.209Z,6.42
2023-01-30T08:06:30.216Z,6.54
2023-01-30T08:07:30.204Z,6.44
2023-01-30T08:08:30.151Z,6.39
2023-01-30T08:09:31.180Z,6.39
2023-01-30T08:10:30.148Z,6.59
2023-01-30T08:11:30.125Z,6.56
2023-01-30T08:12:31.117Z,6.51
2023-01-30T08:13:30.139Z,6.28
2023-01-30T08:14:30.156Z,6.49
2023-01-30T08:15:30.146Z,6.56
2023-01-30T08:16:30.103Z,6.56
2023-01-30T08:17:30.091Z,6.60
2023-01-30T08:18:30.125Z,6.62
2023-01-30T08:19:30.053Z,6.63
2023-01-30T08:20:30.062Z,6.62
2023-01-30T08:21:30.039Z,6.72
2023-01-30T08:22:30.016Z,6.60
2023-01-30T08:23:30.022Z,6.60
2023-01-30T08:24:30.014Z,6.70
2023-01-30T08:25:29.984Z,6.70
2023-01-30T08:26:30.062Z,6.64
2023-01-30T08:27:29.961Z,6.74
2023-01-30T08:28:30.963Z,6.69
2023-01-30T08:29:29.955Z,6.62
2023-01-30T08:30:29.972Z,6.62
2023-01-30T08:31:29.963Z,6.66
2023-01-30T08:32:29.936Z,6.75
2023-01-30T08:33:29.918Z,6.66
2023-01-30T08:34:29.914Z,6.69
2023-01-30T08:35:29.891Z,6.57
2023-01-30T08:36:29.848Z,6.44
2023-01-30T08:37:29.860Z,6.59
2023-01-30T08:38:29.849Z,6.62
2023-01-30T08:39:29.832Z,6.64
2023-01-30T08:40:29.807Z,6.64
2023-01-30T08:41:30.832Z,6.60
2023-01-30T08:42:29.872Z,6.67
2023-01-30T08:43:29.828Z,6.79
2023-01-30T08:44:29.768Z,6.78
2023-01-30T08:45:30.769Z,6.79
2023-01-30T08:46:29.922Z,6.72
2023-01-30T08:47:29.746Z,6.75
2023-01-30T08:48:36.713Z,6.82
2023-01-30T08:49:30.751Z,6.87
2023-01-30T08:50:29.711Z,6.82
2023-01-30T08:51:29.727Z,6.74
2023-01-30T08:52:30.717Z,6.79
2023-01-30T08:53:29.684Z,6.72
2023-01-30T08:54:31.371Z,6.66
2023-01-30T08:55:30.673Z,6.63
2023-01-30T08:56:29.631Z,6.72
2023-01-30T08:57:29.632Z,6.79
2023-01-30T08:58:29.625Z,6.84
2023-01-30T08:59:29.631Z,6.87
2023-01-30T09:00:29.638Z,6.89
2023-01-30T09:01:29.705Z,6.69
2023-01-30T09:02:29.671Z,6.59
2023-01-30T09:03:29.565Z,6.67
2023-01-30T09:04:29.829Z,6.63
2023-01-30T09:05:29.560Z,6.78
2023-01-30T09:06:30.543Z,6.75
2023-01-30T09:07:29.528Z,6.77
2023-01-30T09:08:29.532Z,6.88
2023-01-30T09:09:29.513Z,6.81
2023-01-30T09:10:29.492Z,6.72
2023-01-30T09:11:29.504Z,6.79
2023-01-30T09:12:29.528Z,6.81
2023-01-30T09:13:30.480Z,6.81
2023-01-30T09:14:29.464Z,6.77
2023-01-30T09:15:29.455Z,6.74
2023-01-30T09:16:29.480Z,6.79
2023-01-30T09:17:29.421Z,6.66
2023-01-30T09:18:29.484Z,6.79
2023-01-30T09:19:29.408Z,6.82
2023-01-30T09:20:29.417Z,6.70
2023-01-30T09:21:29.417Z,6.74
2023-01-30T09:22:29.364Z,6.82
2023-01-30T09:23:29.390Z,6.87
2023-01-30T09:24:30.373Z,7.02
2023-01-30T09:25:29.338Z,7.03
2023-01-30T09:26:29.411Z,7.17
2023-01-30T09:27:30.309Z,7.14
2023-01-30T09:28:29.312Z,7.15
2023-01-30T09:29:29.333Z,7.23
2023-01-30T09:30:30.521Z,7.24
2023-01-30T09:31:29.352Z,7.40
2023-01-30T09:32:30.261Z,7.50
2023-01-30T09:33:29.237Z,7.33
2023-01-30T09:34:29.254Z,7.13
2023-01-30T09:35:29.221Z,7.07
2023-01-30T09:36:29.252Z,7.15
2023-01-30T09:37:29.223Z,7.24
2023-01-30T09:38:29.209Z,7.13
2023-01-30T09:39:29.196Z,7.24
2023-01-30T09:40:29.188Z,7.32
2023-01-30T09:41:29.162Z,7.31
2023-01-30T09:42:29.237Z,7.42
2023-01-30T09:43:30.145Z,7.31
2023-01-30T09:44:30.140Z,7.35
2023-01-30T09:45:30.148Z,7.42
2023-01-30T09:46:29.162Z,7.43
2023-01-30T09:47:29.128Z,7.20
2023-01-30T09:48:29.077Z,7.11
2023-01-30T09:49:29.099Z,7.31
2023-01-30T09:50:29.077Z,7.31
2023-01-30T09:51:30.091Z,7.20
2023-01-30T09:52:30.099Z,7.18
2023-01-30T09:53:29.038Z,7.25
2023-01-30T09:54:29.041Z,7.23
2023-01-30T09:55:29.030Z,7.24
2023-01-30T09:56:29.043Z,7.18
2023-01-30T09:57:28.992Z,7.28
2023-01-30T09:58:29.004Z,7.36
2023-01-30T09:59:28.996Z,7.25
2023-01-30T10:00:29.974Z,7.29
2023-01-30T10:01:29.938Z,7.40
2023-01-30T10:02:28.931Z,7.38
2023-01-30T10:03:28.997Z,7.42
2023-01-30T10:04:29.014Z,7.38
2023-01-30T10:05:28.890Z,7.36
2023-01-30T10:06:28.907Z,7.38
2023-01-30T10:07:28.968Z,7.31
2023-01-30T10:08:28.915Z,7.25
2023-01-30T10:09:28.882Z,7.31
2023-01-30T10:10:28.870Z,7.13
2023-01-30T10:11:28.831Z,7.14
2023-01-30T10:12:29.899Z,7.15
2023-01-30T10:13:28.839Z,7.17
2023-01-30T10:14:28.822Z,7.21
2023-01-30T10:15:28.812Z,7.05
2023-01-30T10:16:28.803Z,6.99
2023-01-30T10:17:30.853Z,7.02
2023-01-30T10:18:28.781Z,7.15
2023-01-30T10:19:35.596Z,7.23
2023-01-30T10:20:29.756Z,7.25
2023-01-30T10:21:28.762Z,7.24
2023-01-30T10:22:28.756Z,7.20
2023-01-30T10:23:28.726Z,7.23
2023-01-30T10:24:28.721Z,7.21
2023-01-30T10:25:28.753Z,7.13
2023-01-30T10:26:28.731Z,7.05
2023-01-30T10:27:28.693Z,7.05
2023-01-30T10:28:28.643Z,7.03
2023-01-30T10:29:29.651Z,6.99
2023-01-30T10:30:28.756Z,7.02
2023-01-30T10:31:28.703Z,6.93
2023-01-30T10:32:28.605Z,7.05
2023-01-30T10:33:29.624Z,7.07
2023-01-30T10:34:28.607Z,7.00
2023-01-30T10:35:28.611Z,7.00
2023-01-30T10:36:28.585Z,7.02
2023-01-30T10:37:28.578Z,7.00
2023-01-30T10:38:28.541Z,7.02
2023-01-30T10:39:28.555Z,6.93
2023-01-30T10:40:28.548Z,6.97
2023-01-30T10:41:28.547Z,6.87
2023-01-30T10:42:28.553Z,7.11
2023-01-30T10:43:28.531Z,7.14
2023-01-30T10:44:28.500Z,7.13
2023-01-30T10:45:28.516Z,7.06
2023-01-30T10:46:28.517Z,7.02
2023-01-30T10:47:34.723Z,7.21
2023-01-30T10:48:42.532Z,7.10
2023-01-30T10:49:29.439Z,7.02
2023-01-30T10:50:28.429Z,7.20
2023-01-30T10:51:29.477Z,7.36
2023-01-30T10:52:28.399Z,7.25
2023-01-30T10:53:28.423Z,7.05
2023-01-30T10:54:29.399Z,7.11
2023-01-30T10:55:37.336Z,6.99
2023-01-30T10:56:29.409Z,7.07
2023-01-30T10:57:28.366Z,7.05
2023-01-30T10:58:28.378Z,7.29
2023-01-30T10:59:28.345Z,7.23
2023-01-30T11:00:29.332Z,7.24
2023-01-30T11:01:28.321Z,7.29
2023-01-30T11:02:28.394Z,7.36
2023-01-30T11:03:29.314Z,7.23
2023-01-30T11:04:28.293Z,7.06
2023-01-30T11:05:28.267Z,7.13
2023-01-30T11:06:28.274Z,7.21
2023-01-30T11:07:28.229Z,7.21
2023-01-30T11:08:28.227Z,7.13
2023-01-30T11:09:28.227Z,7.11
2023-01-30T11:10:29.229Z,7.05
2023-01-30T11:11:29.218Z,7.06
2023-01-30T11:12:28.215Z,7.13
2023-01-30T11:13:28.178Z,7.28
2023-01-30T11:14:28.188Z,6.99
2023-01-30T11:15:28.172Z,7.14
2023-01-30T11:16:28.199Z,7.20
2023-01-30T11:17:28.193Z,7.28
2023-01-30T11:19:29.123Z,7.23
2023-01-30T11:20:28.117Z,7.20
2023-01-30T11:21:38.465Z,7.32
2023-01-30T11:22:29.110Z,7.45
2023-01-30T11:23:28.056Z,7.54
2023-01-30T11:24:28.070Z,7.57
2023-01-30T11:25:29.058Z,7.70
2023-01-30T11:26:37.814Z,7.73
2023-01-30T11:27:29.067Z,7.76
2023-01-30T11:28:28.040Z,7.54
2023-01-30T11:29:28.017Z,7.50
2023-01-30T11:30:28.009Z,7.69
2023-01-30T11:31:40.298Z,7.42
2023-01-30T11:32:29.078Z,7.21
2023-01-30T11:33:27.989Z,7.21
2023-01-30T11:34:27.950Z,7.40
2023-01-30T11:35:27.958Z,7.42
2023-01-30T11:36:27.942Z,7.57
2023-01-30T11:37:27.941Z,7.70
2023-01-30T11:38:27.922Z,7.80
2023-01-30T11:39:27.919Z,7.88
2023-01-30T11:40:27.920Z,7.97
2023-01-30T11:41:28.875Z,8.10
2023-01-30T11:42:27.883Z,8.08
2023-01-30T11:43:27.849Z,8.20
2023-01-30T11:44:27.870Z,8.36
2023-01-30T11:45:27.888Z,8.16
2023-01-30T11:46:27.806Z,8.19
2023-01-30T11:47:27.811Z,8.16
2023-01-30T11:48:33.910Z,8.33
2023-01-30T11:49:46.640Z,8.13
2023-01-30T11:50:30.404Z,8.09
2023-01-30T11:51:27.760Z,8.08
2023-01-30T11:52:27.753Z,8.08
2023-01-30T11:53:27.745Z,8.00
2023-01-30T11:54:27.752Z,7.98
2023-01-30T11:55:27.721Z,7.98
2023-01-30T11:56:27.751Z,7.85
2023-01-30T11:57:27.717Z,7.97
2023-01-30T11:58:27.684Z,8.10
2023-01-30T11:59:28.675Z,8.03
2023-01-30T12:00:27.693Z,7.91
2023-01-30T12:01:27.673Z,7.87
2023-01-30T12:02:27.713Z,8.00
2023-01-30T12:03:27.662Z,7.97
2023-01-30T12:04:27.631Z,8.06
2023-01-30T12:05:27.623Z,7.90
2023-01-30T12:06:27.591Z,7.83
2023-01-30T12:07:27.663Z,7.90
2023-01-30T12:08:41.058Z,7.67
2023-01-30T12:09:28.587Z,7.90
2023-01-30T12:10:27.576Z,7.90
2023-01-30T12:11:27.571Z,7.80
2023-01-30T12:12:27.574Z,8.00
2023-01-30T12:13:27.538Z,8.08
2023-01-30T12:14:28.518Z,7.98
2023-01-30T12:15:27.500Z,8.01
2023-01-30T12:16:27.575Z,8.00
2023-01-30T12:17:27.523Z,7.97
2023-01-30T12:18:27.464Z,7.77
2023-01-30T12:19:27.476Z,7.72
2023-01-30T12:20:27.475Z,7.94
2023-01-30T12:21:28.479Z,7.90
2023-01-30T12:22:27.461Z,7.91
2023-01-30T12:23:27.450Z,8.05
2023-01-30T12:24:27.399Z,7.98
2023-01-30T12:25:27.415Z,8.08
2023-01-30T12:26:27.438Z,8.19
2023-01-30T12:27:27.429Z,8.19
2023-01-30T12:28:27.456Z,8.09
2023-01-30T12:29:27.345Z,8.20
2023-01-30T12:30:27.335Z,8.08
2023-01-30T12:31:28.342Z,7.95
2023-01-30T12:32:27.459Z,7.97
2023-01-30T12:33:27.361Z,7.94
2023-01-30T12:34:27.789Z,7.95
2023-01-30T12:35:27.271Z,7.93
2023-01-30T12:36:28.267Z,8.05
2023-01-30T12:37:27.298Z,7.98
2023-01-30T12:38:27.264Z,7.94
2023-01-30T12:39:27.281Z,8.09
2023-01-30T12:40:27.249Z,8.19
2023-01-30T12:41:27.210Z,8.16
2023-01-30T12:42:27.222Z,8.33
2023-01-30T12:43:27.217Z,8.45
2023-01-30T12:44:27.185Z,8.28
2023-01-30T12:45:28.316Z,8.33
2023-01-30T12:46:27.262Z,8.30
2023-01-30T12:47:28.153Z,8.30
2023-01-30T12:48:27.163Z,8.12
2023-01-30T12:49:27.160Z,8.18
2023-01-30T12:50:27.118Z,8.13
2023-01-30T12:51:27.155Z,8.16
2023-01-30T12:52:28.126Z,8.24
2023-01-30T12:53:28.073Z,8.12
2023-01-30T12:54:27.098Z,8.09
2023-01-30T12:55:27.077Z,8.15
2023-01-30T12:56:27.061Z,8.01
2023-01-30T12:57:27.099Z,8.13
2023-01-30T12:58:27.074Z,8.15
2023-01-30T12:59:28.075Z,8.26
2023-01-30T13:00:27.029Z,8.27
2023-01-30T13:01:27.049Z,8.15
2023-01-30T13:02:27.999Z,8.30
2023-01-30T13:03:27.062Z,8.30
2023-01-30T13:04:26.987Z,8.27
2023-01-30T13:05:26.961Z,8.23
2023-01-30T13:06:26.996Z,8.45
2023-01-30T13:07:26.961Z,8.36
2023-01-30T13:08:26.957Z,8.28
2023-01-30T13:09:27.900Z,8.30
2023-01-30T13:10:26.910Z,8.26
2023-01-30T13:11:26.899Z,8.28
2023-01-30T13:12:27.926Z,8.33
2023-01-30T13:13:26.851Z,8.44
2023-01-30T13:14:26.874Z,8.44
2023-01-30T13:15:26.864Z,8.49
2023-01-30T13:16:26.897Z,8.42
2023-01-30T13:17:26.855Z,8.44
2023-01-30T13:18:26.803Z,8.44
2023-01-30T13:19:31.212Z,8.33